sensor_id;sensor_type;location;lat;lon;timestamp;P1;durP1;ratioP1;P2;durP2;ratioP2
529;SDS011;251;48.704;9.210;2022-11-15T00:01:08;2.33;;;1.70;;
529;SDS011;251;48.704;9.210;2022-11-15T00:03:58;2.33;;;1.67;;
529;SDS011;251;48.704;9.210;2022-11-15T00:06:44;3.10;;;2.15;;
529;SDS011;251;48.704;9.210;2022-11-15T00:09:29;2.20;;;1.50;;
529;SDS011;251;48.704;9.210;2022-11-15T00:12:15;2.88;;;2.53;;
529;SDS011;251;48.704;9.210;2022-11-15T00:15:00;2.22;;;1.98;;
529;SDS011;251;48.704;9.210;2022-11-15T00:17:48;4.68;;;2.67;;
529;SDS011;251;48.704;9.210;2022-11-15T00:20:34;1.80;;;1.30;;
529;SDS011;251;48.704;9.210;2022-11-15T00:23:20;2.35;;;1.95;;
529;SDS011;251;48.704;9.210;2022-11-15T00:26:05;2.03;;;1.65;;
529;SDS011;251;48.704;9.210;2022-11-15T00:28:51;2.60;;;2.40;;
529;SDS011;251;48.704;9.210;2022-11-15T00:31:36;2.50;;;1.52;;
529;SDS011;251;48.704;9.210;2022-11-15T00:34:22;2.80;;;2.35;;
529;SDS011;251;48.704;9.210;2022-11-15T00:37:09;5.30;;;2.65;;
529;SDS011;251;48.704;9.210;2022-11-15T00:39:54;1.92;;;1.42;;
529;SDS011;251;48.704;9.210;2022-11-15T00:42:39;4.30;;;2.88;;
529;SDS011;251;48.704;9.210;2022-11-15T00:45:25;2.05;;;1.60;;
529;SDS011;251;48.704;9.210;2022-11-15T00:48:11;2.28;;;2.08;;
529;SDS011;251;48.704;9.210;2022-11-15T00:50:56;3.28;;;1.75;;
529;SDS011;251;48.704;9.210;2022-11-15T00:53:43;2.03;;;1.73;;
529;SDS011;251;48.704;9.210;2022-11-15T00:56:28;2.45;;;1.50;;
529;SDS011;251;48.704;9.210;2022-11-15T00:59:14;2.83;;;2.10;;
529;SDS011;251;48.704;9.210;2022-11-15T01:01:59;3.00;;;2.47;;
529;SDS011;251;48.704;9.210;2022-11-15T01:04:44;2.40;;;2.20;;
529;SDS011;251;48.704;9.210;2022-11-15T01:07:30;3.42;;;2.90;;
529;SDS011;251;48.704;9.210;2022-11-15T01:10:17;2.33;;;1.70;;
529;SDS011;251;48.704;9.210;2022-11-15T01:13:03;2.25;;;1.60;;
529;SDS011;251;48.704;9.210;2022-11-15T01:15:48;4.35;;;2.55;;
529;SDS011;251;48.704;9.210;2022-11-15T01:18:33;2.40;;;1.25;;
529;SDS011;251;48.704;9.210;2022-11-15T01:21:19;2.13;;;1.85;;
529;SDS011;251;48.704;9.210;2022-11-15T01:24:05;2.35;;;1.45;;
529;SDS011;251;48.704;9.210;2022-11-15T01:26:52;2.20;;;1.55;;
529;SDS011;251;48.704;9.210;2022-11-15T01:29:38;1.92;;;1.63;;
529;SDS011;251;48.704;9.210;2022-11-15T01:32:23;2.20;;;1.80;;
529;SDS011;251;48.704;9.210;2022-11-15T01:35:08;4.00;;;1.65;;
529;SDS011;251;48.704;9.210;2022-11-15T01:37:54;2.65;;;1.85;;
529;SDS011;251;48.704;9.210;2022-11-15T01:40:39;2.47;;;2.25;;
529;SDS011;251;48.704;9.210;2022-11-15T01:43:27;1.88;;;1.35;;
529;SDS011;251;48.704;9.210;2022-11-15T01:46:19;2.47;;;1.55;;
529;SDS011;251;48.704;9.210;2022-11-15T01:49:14;1.90;;;1.50;;
529;SDS011;251;48.704;9.210;2022-11-15T01:52:04;2.03;;;1.20;;
529;SDS011;251;48.704;9.210;2022-11-15T01:54:53;2.38;;;1.55;;
529;SDS011;251;48.704;9.210;2022-11-15T01:57:42;2.42;;;1.48;;
529;SDS011;251;48.704;9.210;2022-11-15T02:00:32;1.83;;;1.33;;
529;SDS011;251;48.704;9.210;2022-11-15T02:03:18;1.80;;;1.60;;
529;SDS011;251;48.704;9.210;2022-11-15T02:06:05;2.42;;;1.30;;
529;SDS011;251;48.704;9.210;2022-11-15T02:08:50;2.13;;;1.73;;
529;SDS011;251;48.704;9.210;2022-11-15T02:11:36;2.05;;;1.85;;
529;SDS011;251;48.704;9.210;2022-11-15T02:14:22;1.95;;;1.27;;
529;SDS011;251;48.704;9.210;2022-11-15T02:17:16;3.35;;;1.65;;
529;SDS011;251;48.704;9.210;2022-11-15T02:20:23;1.92;;;1.40;;
529;SDS011;251;48.704;9.210;2022-11-15T02:23:42;1.70;;;1.10;;
529;SDS011;251;48.704;9.210;2022-11-15T02:26:51;2.33;;;1.48;;
529;SDS011;251;48.704;9.210;2022-11-15T02:30:04;1.63;;;1.10;;
529;SDS011;251;48.704;9.210;2022-11-15T02:33:11;1.65;;;1.55;;
529;SDS011;251;48.704;9.210;2022-11-15T02:36:05;1.60;;;0.90;;
529;SDS011;251;48.704;9.210;2022-11-15T02:38:58;1.80;;;1.35;;
529;SDS011;251;48.704;9.210;2022-11-15T02:41:49;1.73;;;1.38;;
529;SDS011;251;48.704;9.210;2022-11-15T02:44:39;2.00;;;1.80;;
529;SDS011;251;48.704;9.210;2022-11-15T02:47:30;1.85;;;1.35;;
529;SDS011;251;48.704;9.210;2022-11-15T02:50:19;1.70;;;1.33;;
529;SDS011;251;48.704;9.210;2022-11-15T02:53:08;2.83;;;2.05;;
529;SDS011;251;48.704;9.210;2022-11-15T02:55:54;1.50;;;1.00;;
529;SDS011;251;48.704;9.210;2022-11-15T02:58:49;4.10;;;1.48;;
529;SDS011;251;48.704;9.210;2022-11-15T03:01:56;1.90;;;1.20;;
529;SDS011;251;48.704;9.210;2022-11-15T03:04:54;2.45;;;1.45;;
529;SDS011;251;48.704;9.210;2022-11-15T03:07:43;2.13;;;1.50;;
529;SDS011;251;48.704;9.210;2022-11-15T03:10:40;1.60;;;1.30;;
529;SDS011;251;48.704;9.210;2022-11-15T03:13:31;1.60;;;1.27;;
529;SDS011;251;48.704;9.210;2022-11-15T03:16:24;1.50;;;1.00;;
529;SDS011;251;48.704;9.210;2022-11-15T03:19:16;2.10;;;1.33;;
529;SDS011;251;48.704;9.210;2022-11-15T03:22:09;1.50;;;1.05;;
529;SDS011;251;48.704;9.210;2022-11-15T03:24:57;1.88;;;1.40;;
529;SDS011;251;48.704;9.210;2022-11-15T03:27:48;1.70;;;1.10;;
529;SDS011;251;48.704;9.210;2022-11-15T03:30:37;4.13;;;1.80;;
529;SDS011;251;48.704;9.210;2022-11-15T03:33:25;2.15;;;1.60;;
529;SDS011;251;48.704;9.210;2022-11-15T03:36:12;1.90;;;1.35;;
529;SDS011;251;48.704;9.210;2022-11-15T03:39:00;1.80;;;1.10;;
529;SDS011;251;48.704;9.210;2022-11-15T03:41:50;1.60;;;1.10;;
529;SDS011;251;48.704;9.210;2022-11-15T03:44:51;2.67;;;1.65;;
529;SDS011;251;48.704;9.210;2022-11-15T03:47:39;1.60;;;1.38;;
529;SDS011;251;48.704;9.210;2022-11-15T03:50:28;1.90;;;1.38;;
529;SDS011;251;48.704;9.210;2022-11-15T03:53:14;2.10;;;1.33;;
529;SDS011;251;48.704;9.210;2022-11-15T03:56:01;2.38;;;1.42;;
529;SDS011;251;48.704;9.210;2022-11-15T03:58:46;1.85;;;1.27;;
529;SDS011;251;48.704;9.210;2022-11-15T04:01:32;1.63;;;1.40;;
529;SDS011;251;48.704;9.210;2022-11-15T04:04:17;1.92;;;1.17;;
529;SDS011;251;48.704;9.210;2022-11-15T04:07:03;3.35;;;1.25;;
529;SDS011;251;48.704;9.210;2022-11-15T04:09:48;1.50;;;0.80;;
529;SDS011;251;48.704;9.210;2022-11-15T04:12:50;1.70;;;1.30;;
529;SDS011;251;48.704;9.210;2022-11-15T04:15:36;1.60;;;1.00;;
529;SDS011;251;48.704;9.210;2022-11-15T04:18:21;1.63;;;0.95;;
529;SDS011;251;48.704;9.210;2022-11-15T04:21:07;1.98;;;0.90;;
529;SDS011;251;48.704;9.210;2022-11-15T04:24:11;2.03;;;1.23;;
529;SDS011;251;48.704;9.210;2022-11-15T04:26:56;1.98;;;1.77;;
529;SDS011;251;48.704;9.210;2022-11-15T04:29:43;1.98;;;1.30;;
529;SDS011;251;48.704;9.210;2022-11-15T04:32:29;2.30;;;1.70;;
529;SDS011;251;48.704;9.210;2022-11-15T04:35:14;1.95;;;1.23;;
529;SDS011;251;48.704;9.210;2022-11-15T04:38:00;1.60;;;1.10;;
529;SDS011;251;48.704;9.210;2022-11-15T04:40:47;3.55;;;2.70;;
529;SDS011;251;48.704;9.210;2022-11-15T04:43:32;2.15;;;1.75;;
529;SDS011;251;48.704;9.210;2022-11-15T04:46:19;2.85;;;1.98;;
529;SDS011;251;48.704;9.210;2022-11-15T04:49:05;2.00;;;1.10;;
529;SDS011;251;48.704;9.210;2022-11-15T04:51:50;5.90;;;1.35;;
529;SDS011;251;48.704;9.210;2022-11-15T04:54:36;1.73;;;1.45;;
529;SDS011;251;48.704;9.210;2022-11-15T04:57:21;2.38;;;1.38;;
529;SDS011;251;48.704;9.210;2022-11-15T05:00:08;1.60;;;1.10;;
529;SDS011;251;48.704;9.210;2022-11-15T05:02:57;3.60;;;1.77;;
529;SDS011;251;48.704;9.210;2022-11-15T05:06:00;1.73;;;1.48;;
529;SDS011;251;48.704;9.210;2022-11-15T05:08:46;2.40;;;1.58;;
529;SDS011;251;48.704;9.210;2022-11-15T05:11:31;2.05;;;1.13;;
529;SDS011;251;48.704;9.210;2022-11-15T05:14:17;1.75;;;1.23;;
529;SDS011;251;48.704;9.210;2022-11-15T05:17:02;2.70;;;1.80;;
529;SDS011;251;48.704;9.210;2022-11-15T05:19:49;1.65;;;1.27;;
529;SDS011;251;48.704;9.210;2022-11-15T05:22:35;2.72;;;1.40;;
529;SDS011;251;48.704;9.210;2022-11-15T05:25:21;1.80;;;1.10;;
529;SDS011;251;48.704;9.210;2022-11-15T05:28:06;2.22;;;1.20;;
529;SDS011;251;48.704;9.210;2022-11-15T05:30:52;3.15;;;1.35;;
529;SDS011;251;48.704;9.210;2022-11-15T05:33:38;2.25;;;1.33;;
529;SDS011;251;48.704;9.210;2022-11-15T05:36:27;1.75;;;1.23;;
529;SDS011;251;48.704;9.210;2022-11-15T05:39:16;1.85;;;1.35;;
529;SDS011;251;48.704;9.210;2022-11-15T05:42:02;2.75;;;1.58;;
529;SDS011;251;48.704;9.210;2022-11-15T05:44:50;1.50;;;1.00;;
529;SDS011;251;48.704;9.210;2022-11-15T05:47:36;1.60;;;1.20;;
529;SDS011;251;48.704;9.210;2022-11-15T05:50:23;2.30;;;1.67;;
529;SDS011;251;48.704;9.210;2022-11-15T05:53:10;3.78;;;1.92;;
529;SDS011;251;48.704;9.210;2022-11-15T05:55:57;1.50;;;1.08;;
529;SDS011;251;48.704;9.210;2022-11-15T05:58:43;2.78;;;1.90;;
529;SDS011;251;48.704;9.210;2022-11-15T06:01:29;1.55;;;1.10;;
529;SDS011;251;48.704;9.210;2022-11-15T06:04:14;2.25;;;2.00;;
529;SDS011;251;48.704;9.210;2022-11-15T06:07:00;1.60;;;1.25;;
529;SDS011;251;48.704;9.210;2022-11-15T06:09:47;3.15;;;2.67;;
529;SDS011;251;48.704;9.210;2022-11-15T06:12:32;3.00;;;1.63;;
529;SDS011;251;48.704;9.210;2022-11-15T06:15:18;1.63;;;1.23;;
529;SDS011;251;48.704;9.210;2022-11-15T06:18:03;2.00;;;1.20;;
529;SDS011;251;48.704;9.210;2022-11-15T06:20:49;1.52;;;1.10;;
529;SDS011;251;48.704;9.210;2022-11-15T06:23:34;2.58;;;1.27;;
529;SDS011;251;48.704;9.210;2022-11-15T06:26:21;1.58;;;1.20;;
529;SDS011;251;48.704;9.210;2022-11-15T06:29:07;13.38;;;1.75;;
529;SDS011;251;48.704;9.210;2022-11-15T06:31:52;2.63;;;1.85;;
529;SDS011;251;48.704;9.210;2022-11-15T06:34:37;2.30;;;1.20;;
529;SDS011;251;48.704;9.210;2022-11-15T06:37:23;1.75;;;1.08;;
529;SDS011;251;48.704;9.210;2022-11-15T06:40:09;2.65;;;1.40;;
529;SDS011;251;48.704;9.210;2022-11-15T06:42:58;2.13;;;1.10;;
529;SDS011;251;48.704;9.210;2022-11-15T06:45:43;3.67;;;1.40;;
529;SDS011;251;48.704;9.210;2022-11-15T06:48:29;2.80;;;1.95;;
529;SDS011;251;48.704;9.210;2022-11-15T06:51:16;1.63;;;1.35;;
529;SDS011;251;48.704;9.210;2022-11-15T06:54:01;2.03;;;1.20;;
529;SDS011;251;48.704;9.210;2022-11-15T06:56:47;3.03;;;1.80;;
529;SDS011;251;48.704;9.210;2022-11-15T06:59:33;2.63;;;2.00;;
529;SDS011;251;48.704;9.210;2022-11-15T07:02:19;1.80;;;1.10;;
529;SDS011;251;48.704;9.210;2022-11-15T07:05:05;2.08;;;1.45;;
529;SDS011;251;48.704;9.210;2022-11-15T07:07:51;3.08;;;2.17;;
529;SDS011;251;48.704;9.210;2022-11-15T07:10:37;1.50;;;1.08;;
529;SDS011;251;48.704;9.210;2022-11-15T07:13:23;2.85;;;1.55;;
529;SDS011;251;48.704;9.210;2022-11-15T07:16:10;2.05;;;1.73;;
529;SDS011;251;48.704;9.210;2022-11-15T07:18:56;3.30;;;2.13;;
529;SDS011;251;48.704;9.210;2022-11-15T07:21:42;1.63;;;1.10;;
529;SDS011;251;48.704;9.210;2022-11-15T07:24:27;3.92;;;1.55;;
529;SDS011;251;48.704;9.210;2022-11-15T07:27:13;2.35;;;1.63;;
529;SDS011;251;48.704;9.210;2022-11-15T07:29:58;1.70;;;1.10;;
529;SDS011;251;48.704;9.210;2022-11-15T07:32:45;2.50;;;1.77;;
529;SDS011;251;48.704;9.210;2022-11-15T07:35:31;1.63;;;1.38;;
529;SDS011;251;48.704;9.210;2022-11-15T07:38:17;1.60;;;1.30;;
529;SDS011;251;48.704;9.210;2022-11-15T07:41:04;1.70;;;1.20;;
529;SDS011;251;48.704;9.210;2022-11-15T07:43:51;2.25;;;1.60;;
529;SDS011;251;48.704;9.210;2022-11-15T07:46:36;2.50;;;1.55;;
529;SDS011;251;48.704;9.210;2022-11-15T07:49:23;3.67;;;2.00;;
529;SDS011;251;48.704;9.210;2022-11-15T07:52:09;2.67;;;1.83;;
529;SDS011;251;48.704;9.210;2022-11-15T07:54:54;2.67;;;2.08;;
529;SDS011;251;48.704;9.210;2022-11-15T07:57:40;3.40;;;2.45;;
529;SDS011;251;48.704;9.210;2022-11-15T08:00:25;2.25;;;1.92;;
529;SDS011;251;48.704;9.210;2022-11-15T08:03:11;4.05;;;2.30;;
529;SDS011;251;48.704;9.210;2022-11-15T08:06:00;3.85;;;3.00;;
529;SDS011;251;48.704;9.210;2022-11-15T08:08:46;2.58;;;2.17;;
529;SDS011;251;48.704;9.210;2022-11-15T08:11:31;3.28;;;2.22;;
529;SDS011;251;48.704;9.210;2022-11-15T08:14:17;5.38;;;4.18;;
529;SDS011;251;48.704;9.210;2022-11-15T08:17:02;4.00;;;2.92;;
529;SDS011;251;48.704;9.210;2022-11-15T08:19:48;4.15;;;2.55;;
529;SDS011;251;48.704;9.210;2022-11-15T08:22:35;6.50;;;3.38;;
529;SDS011;251;48.704;9.210;2022-11-15T08:25:20;2.97;;;2.65;;
529;SDS011;251;48.704;9.210;2022-11-15T08:28:06;5.00;;;3.30;;
529;SDS011;251;48.704;9.210;2022-11-15T08:30:54;7.60;;;4.40;;
529;SDS011;251;48.704;9.210;2022-11-15T08:33:39;5.47;;;4.13;;
529;SDS011;251;48.704;9.210;2022-11-15T08:36:25;5.13;;;4.47;;
529;SDS011;251;48.704;9.210;2022-11-15T08:39:12;5.57;;;4.00;;
529;SDS011;251;48.704;9.210;2022-11-15T08:41:58;3.90;;;3.35;;
529;SDS011;251;48.704;9.210;2022-11-15T08:44:44;7.25;;;4.60;;
529;SDS011;251;48.704;9.210;2022-11-15T08:47:29;4.75;;;3.28;;
529;SDS011;251;48.704;9.210;2022-11-15T08:50:15;5.10;;;3.63;;
529;SDS011;251;48.704;9.210;2022-11-15T08:53:04;4.65;;;4.03;;
529;SDS011;251;48.704;9.210;2022-11-15T08:55:52;6.53;;;3.80;;
529;SDS011;251;48.704;9.210;2022-11-15T08:58:37;8.40;;;5.25;;
529;SDS011;251;48.704;9.210;2022-11-15T09:01:23;5.68;;;5.03;;
529;SDS011;251;48.704;9.210;2022-11-15T09:04:08;6.63;;;5.88;;
529;SDS011;251;48.704;9.210;2022-11-15T09:06:54;11.07;;;5.78;;
529;SDS011;251;48.704;9.210;2022-11-15T09:09:39;17.30;;;7.05;;
529;SDS011;251;48.704;9.210;2022-11-15T09:12:26;8.90;;;5.70;;
529;SDS011;251;48.704;9.210;2022-11-15T09:15:11;6.28;;;4.47;;
529;SDS011;251;48.704;9.210;2022-11-15T09:17:57;4.97;;;4.47;;
529;SDS011;251;48.704;9.210;2022-11-15T09:20:43;5.30;;;3.45;;
529;SDS011;251;48.704;9.210;2022-11-15T09:23:29;4.75;;;4.22;;
529;SDS011;251;48.704;9.210;2022-11-15T09:26:14;3.33;;;3.03;;
529;SDS011;251;48.704;9.210;2022-11-15T09:29:01;3.95;;;2.72;;
529;SDS011;251;48.704;9.210;2022-11-15T09:31:47;5.30;;;3.90;;
529;SDS011;251;48.704;9.210;2022-11-15T09:34:32;3.42;;;3.13;;
529;SDS011;251;48.704;9.210;2022-11-15T09:37:18;3.10;;;2.55;;
529;SDS011;251;48.704;9.210;2022-11-15T09:40:04;3.65;;;3.35;;
529;SDS011;251;48.704;9.210;2022-11-15T09:43:05;7.65;;;5.72;;
529;SDS011;251;48.704;9.210;2022-11-15T09:46:06;4.05;;;3.47;;
529;SDS011;251;48.704;9.210;2022-11-15T09:49:01;2.45;;;2.22;;
529;SDS011;251;48.704;9.210;2022-11-15T09:51:33;2.45;;;2.22;;
529;SDS011;251;48.704;9.210;2022-11-15T09:54:13;3.58;;;2.47;;
529;SDS011;251;48.704;9.210;2022-11-15T09:56:55;3.80;;;2.95;;
529;SDS011;251;48.704;9.210;2022-11-15T09:59:26;2.70;;;2.42;;
529;SDS011;251;48.704;9.210;2022-11-15T10:02:03;2.65;;;2.45;;
529;SDS011;251;48.704;9.210;2022-11-15T10:04:41;3.80;;;3.00;;
529;SDS011;251;48.704;9.210;2022-11-15T10:07:12;5.93;;;3.33;;
529;SDS011;251;48.704;9.210;2022-11-15T10:09:44;4.93;;;4.05;;
529;SDS011;251;48.704;9.210;2022-11-15T10:12:15;5.55;;;2.85;;
529;SDS011;251;48.704;9.210;2022-11-15T10:14:42;10.35;;;4.35;;
529;SDS011;251;48.704;9.210;2022-11-15T10:20:17;5.78;;;4.35;;
529;SDS011;251;48.704;9.210;2022-11-15T10:22:47;3.63;;;2.70;;
529;SDS011;251;48.704;9.210;2022-11-15T10:25:17;5.40;;;4.15;;
529;SDS011;251;48.704;9.210;2022-11-15T10:27:50;14.00;;;4.03;;
529;SDS011;251;48.704;9.210;2022-11-15T10:30:20;13.93;;;3.80;;
529;SDS011;251;48.704;9.210;2022-11-15T10:32:49;5.35;;;3.28;;
529;SDS011;251;48.704;9.210;2022-11-15T10:35:20;4.57;;;3.05;;
529;SDS011;251;48.704;9.210;2022-11-15T10:37:49;3.72;;;3.17;;
529;SDS011;251;48.704;9.210;2022-11-15T10:40:18;6.60;;;4.05;;
529;SDS011;251;48.704;9.210;2022-11-15T10:42:47;6.13;;;4.07;;
529;SDS011;251;48.704;9.210;2022-11-15T10:45:24;3.47;;;2.45;;
529;SDS011;251;48.704;9.210;2022-11-15T10:47:55;4.78;;;2.60;;
529;SDS011;251;48.704;9.210;2022-11-15T10:50:47;8.57;;;4.85;;
529;SDS011;251;48.704;9.210;2022-11-15T10:53:16;7.78;;;4.07;;
529;SDS011;251;48.704;9.210;2022-11-15T10:55:47;3.28;;;2.92;;
529;SDS011;251;48.704;9.210;2022-11-15T10:58:20;5.85;;;3.90;;
529;SDS011;251;48.704;9.210;2022-11-15T11:00:53;3.17;;;2.63;;
529;SDS011;251;48.704;9.210;2022-11-15T11:03:26;6.43;;;4.38;;
529;SDS011;251;48.704;9.210;2022-11-15T11:06:02;5.00;;;3.80;;
529;SDS011;251;48.704;9.210;2022-11-15T11:08:31;4.30;;;3.47;;
529;SDS011;251;48.704;9.210;2022-11-15T11:11:00;13.38;;;3.95;;
529;SDS011;251;48.704;9.210;2022-11-15T11:13:29;3.92;;;3.45;;
529;SDS011;251;48.704;9.210;2022-11-15T11:15:59;3.28;;;2.95;;
529;SDS011;251;48.704;9.210;2022-11-15T11:18:51;6.40;;;3.67;;
529;SDS011;251;48.704;9.210;2022-11-15T11:21:30;3.73;;;3.00;;
529;SDS011;251;48.704;9.210;2022-11-15T11:24:08;3.38;;;3.05;;
529;SDS011;251;48.704;9.210;2022-11-15T11:26:42;4.22;;;3.75;;
529;SDS011;251;48.704;9.210;2022-11-15T11:29:20;4.05;;;2.47;;
529;SDS011;251;48.704;9.210;2022-11-15T11:32:01;4.60;;;3.13;;
529;SDS011;251;48.704;9.210;2022-11-15T11:34:40;4.38;;;3.97;;
529;SDS011;251;48.704;9.210;2022-11-15T11:37:17;2.80;;;2.30;;
529;SDS011;251;48.704;9.210;2022-11-15T11:39:54;5.10;;;3.35;;
529;SDS011;251;48.704;9.210;2022-11-15T11:42:33;5.35;;;2.70;;
529;SDS011;251;48.704;9.210;2022-11-15T11:45:10;5.45;;;3.38;;
529;SDS011;251;48.704;9.210;2022-11-15T11:47:46;5.30;;;2.70;;
529;SDS011;251;48.704;9.210;2022-11-15T11:50:17;5.25;;;4.13;;
529;SDS011;251;48.704;9.210;2022-11-15T11:52:54;3.77;;;2.87;;
529;SDS011;251;48.704;9.210;2022-11-15T11:55:24;3.78;;;3.40;;
529;SDS011;251;48.704;9.210;2022-11-15T11:57:58;3.30;;;2.73;;
529;SDS011;251;48.704;9.210;2022-11-15T12:00:29;2.78;;;2.22;;
529;SDS011;251;48.704;9.210;2022-11-15T12:03:03;3.00;;;2.70;;
529;SDS011;251;48.704;9.210;2022-11-15T12:05:37;12.43;;;3.97;;
529;SDS011;251;48.704;9.210;2022-11-15T12:08:10;3.97;;;3.60;;
529;SDS011;251;48.704;9.210;2022-11-15T12:10:50;4.27;;;2.63;;
529;SDS011;251;48.704;9.210;2022-11-15T12:13:24;2.90;;;2.40;;
529;SDS011;251;48.704;9.210;2022-11-15T12:15:59;7.20;;;4.17;;
529;SDS011;251;48.704;9.210;2022-11-15T12:18:31;3.80;;;2.87;;
529;SDS011;251;48.704;9.210;2022-11-15T12:21:02;2.90;;;2.53;;
529;SDS011;251;48.704;9.210;2022-11-15T12:23:35;3.85;;;2.08;;
529;SDS011;251;48.704;9.210;2022-11-15T12:26:06;3.87;;;2.50;;
529;SDS011;251;48.704;9.210;2022-11-15T12:28:37;4.20;;;2.70;;
529;SDS011;251;48.704;9.210;2022-11-15T12:31:10;3.63;;;2.23;;
529;SDS011;251;48.704;9.210;2022-11-15T12:33:42;3.37;;;2.63;;
529;SDS011;251;48.704;9.210;2022-11-15T12:36:12;3.90;;;2.50;;
529;SDS011;251;48.704;9.210;2022-11-15T12:38:58;3.07;;;1.90;;
529;SDS011;251;48.704;9.210;2022-11-15T12:41:26;3.03;;;1.90;;
529;SDS011;251;48.704;9.210;2022-11-15T12:43:54;3.60;;;2.13;;
529;SDS011;251;48.704;9.210;2022-11-15T12:46:23;3.40;;;2.03;;
529;SDS011;251;48.704;9.210;2022-11-15T12:52:15;3.50;;;2.10;;
529;SDS011;251;48.704;9.210;2022-11-15T12:54:58;4.50;;;1.97;;
529;SDS011;251;48.704;9.210;2022-11-15T12:57:35;4.40;;;2.87;;
529;SDS011;251;48.704;9.210;2022-11-15T13:00:36;3.57;;;2.10;;
529;SDS011;251;48.704;9.210;2022-11-15T13:05:55;3.33;;;2.27;;
529;SDS011;251;48.704;9.210;2022-11-15T13:08:38;3.50;;;2.70;;
529;SDS011;251;48.704;9.210;2022-11-15T13:20:17;3.67;;;2.50;;
529;SDS011;251;48.704;9.210;2022-11-15T13:22:50;3.80;;;3.03;;
529;SDS011;251;48.704;9.210;2022-11-15T13:25:30;4.28;;;2.40;;
529;SDS011;251;48.704;9.210;2022-11-15T13:28:10;4.30;;;1.87;;
529;SDS011;251;48.704;9.210;2022-11-15T13:30:48;3.13;;;2.70;;
529;SDS011;251;48.704;9.210;2022-11-15T13:33:17;3.73;;;1.93;;
529;SDS011;251;48.704;9.210;2022-11-15T13:35:47;3.57;;;2.20;;
529;SDS011;251;48.704;9.210;2022-11-15T13:38:17;3.90;;;2.17;;
529;SDS011;251;48.704;9.210;2022-11-15T13:40:52;6.07;;;3.27;;
529;SDS011;251;48.704;9.210;2022-11-15T13:43:25;3.30;;;2.50;;
529;SDS011;251;48.704;9.210;2022-11-15T13:46:07;3.13;;;1.80;;
529;SDS011;251;48.704;9.210;2022-11-15T13:48:38;3.70;;;2.13;;
529;SDS011;251;48.704;9.210;2022-11-15T13:51:07;3.33;;;2.30;;
529;SDS011;251;48.704;9.210;2022-11-15T13:53:42;4.50;;;2.10;;
529;SDS011;251;48.704;9.210;2022-11-15T13:58:42;3.23;;;2.10;;
529;SDS011;251;48.704;9.210;2022-11-15T14:01:13;5.83;;;2.70;;
529;SDS011;251;48.704;9.210;2022-11-15T14:03:49;5.50;;;2.20;;
529;SDS011;251;48.704;9.210;2022-11-15T14:06:19;4.55;;;2.60;;
529;SDS011;251;48.704;9.210;2022-11-15T14:08:58;3.40;;;2.37;;
529;SDS011;251;48.704;9.210;2022-11-15T14:11:29;5.53;;;2.43;;
529;SDS011;251;48.704;9.210;2022-11-15T14:14:02;3.57;;;2.10;;
529;SDS011;251;48.704;9.210;2022-11-15T14:16:38;3.40;;;2.47;;
529;SDS011;251;48.704;9.210;2022-11-15T14:19:06;3.50;;;2.97;;
529;SDS011;251;48.704;9.210;2022-11-15T14:21:37;2.83;;;2.10;;
529;SDS011;251;48.704;9.210;2022-11-15T14:24:29;2.70;;;2.40;;
529;SDS011;251;48.704;9.210;2022-11-15T14:26:56;2.00;;;1.50;;
529;SDS011;251;48.704;9.210;2022-11-15T14:29:41;3.63;;;2.53;;
529;SDS011;251;48.704;9.210;2022-11-15T14:32:11;2.83;;;2.33;;
529;SDS011;251;48.704;9.210;2022-11-15T14:34:40;4.47;;;3.07;;
529;SDS011;251;48.704;9.210;2022-11-15T14:37:09;2.23;;;1.53;;
529;SDS011;251;48.704;9.210;2022-11-15T14:39:48;3.83;;;3.00;;
529;SDS011;251;48.704;9.210;2022-11-15T14:42:15;3.40;;;2.47;;
529;SDS011;251;48.704;9.210;2022-11-15T14:44:42;2.13;;;1.58;;
529;SDS011;251;48.704;9.210;2022-11-15T14:47:09;3.60;;;2.07;;
529;SDS011;251;48.704;9.210;2022-11-15T14:49:35;5.60;;;3.20;;
529;SDS011;251;48.704;9.210;2022-11-15T14:52:04;6.73;;;3.27;;
529;SDS011;251;48.704;9.210;2022-11-15T14:54:37;5.73;;;2.67;;
529;SDS011;251;48.704;9.210;2022-11-15T14:57:06;6.20;;;2.80;;
529;SDS011;251;48.704;9.210;2022-11-15T14:59:32;3.97;;;2.80;;
529;SDS011;251;48.704;9.210;2022-11-15T15:01:59;4.30;;;2.63;;
529;SDS011;251;48.704;9.210;2022-11-15T15:04:26;6.10;;;3.30;;
529;SDS011;251;48.704;9.210;2022-11-15T15:06:53;5.10;;;3.28;;
529;SDS011;251;48.704;9.210;2022-11-15T15:09:20;4.70;;;4.10;;
529;SDS011;251;48.704;9.210;2022-11-15T15:11:46;4.70;;;4.10;;
529;SDS011;251;48.704;9.210;2022-11-15T15:14:15;3.23;;;2.90;;
529;SDS011;251;48.704;9.210;2022-11-15T15:16:41;3.80;;;3.20;;
529;SDS011;251;48.704;9.210;2022-11-15T15:19:08;6.80;;;3.27;;
529;SDS011;251;48.704;9.210;2022-11-15T15:21:35;8.10;;;3.77;;
529;SDS011;251;48.704;9.210;2022-11-15T15:24:02;12.95;;;4.38;;
529;SDS011;251;48.704;9.210;2022-11-15T15:26:29;5.60;;;4.32;;
529;SDS011;251;48.704;9.210;2022-11-15T15:28:58;3.60;;;3.07;;
529;SDS011;251;48.704;9.210;2022-11-15T15:31:26;7.30;;;4.00;;
529;SDS011;251;48.704;9.210;2022-11-15T15:33:54;6.30;;;3.40;;
529;SDS011;251;48.704;9.210;2022-11-15T15:36:21;4.57;;;3.10;;
529;SDS011;251;48.704;9.210;2022-11-15T15:38:48;3.53;;;3.23;;
529;SDS011;251;48.704;9.210;2022-11-15T15:41:15;4.40;;;3.30;;
529;SDS011;251;48.704;9.210;2022-11-15T15:43:42;5.10;;;3.40;;
529;SDS011;251;48.704;9.210;2022-11-15T15:46:10;4.73;;;3.90;;
529;SDS011;251;48.704;9.210;2022-11-15T15:48:41;3.53;;;2.63;;
529;SDS011;251;48.704;9.210;2022-11-15T15:51:08;4.47;;;2.80;;
529;SDS011;251;48.704;9.210;2022-11-15T15:53:35;5.32;;;3.65;;
529;SDS011;251;48.704;9.210;2022-11-15T15:56:02;3.73;;;3.13;;
529;SDS011;251;48.704;9.210;2022-11-15T15:58:29;3.53;;;2.47;;
529;SDS011;251;48.704;9.210;2022-11-15T16:00:57;5.50;;;3.47;;
529;SDS011;251;48.704;9.210;2022-11-15T16:03:23;3.97;;;2.80;;
529;SDS011;251;48.704;9.210;2022-11-15T16:05:51;2.63;;;2.03;;
529;SDS011;251;48.704;9.210;2022-11-15T16:08:19;3.00;;;2.60;;
529;SDS011;251;48.704;9.210;2022-11-15T16:10:47;5.33;;;3.10;;
529;SDS011;251;48.704;9.210;2022-11-15T16:13:14;5.70;;;3.50;;
529;SDS011;251;48.704;9.210;2022-11-15T16:15:42;6.23;;;2.53;;
529;SDS011;251;48.704;9.210;2022-11-15T16:18:12;2.83;;;2.40;;
529;SDS011;251;48.704;9.210;2022-11-15T16:20:42;6.77;;;3.40;;
529;SDS011;251;48.704;9.210;2022-11-15T16:23:11;3.35;;;2.42;;
529;SDS011;251;48.704;9.210;2022-11-15T16:25:41;5.13;;;2.57;;
529;SDS011;251;48.704;9.210;2022-11-15T16:28:17;4.55;;;3.85;;
529;SDS011;251;48.704;9.210;2022-11-15T16:30:45;7.07;;;4.68;;
529;SDS011;251;48.704;9.210;2022-11-15T16:33:12;5.55;;;3.92;;
529;SDS011;251;48.704;9.210;2022-11-15T16:35:39;10.27;;;5.90;;
529;SDS011;251;48.704;9.210;2022-11-15T16:38:07;5.57;;;4.25;;
529;SDS011;251;48.704;9.210;2022-11-15T16:40:39;8.43;;;3.83;;
529;SDS011;251;48.704;9.210;2022-11-15T16:43:06;7.50;;;4.60;;
529;SDS011;251;48.704;9.210;2022-11-15T16:45:33;7.47;;;5.15;;
529;SDS011;251;48.704;9.210;2022-11-15T16:48:00;8.40;;;6.63;;
529;SDS011;251;48.704;9.210;2022-11-15T16:50:28;10.63;;;6.30;;
529;SDS011;251;48.704;9.210;2022-11-15T16:52:59;6.72;;;4.75;;
529;SDS011;251;48.704;9.210;2022-11-15T16:55:28;5.23;;;3.87;;
529;SDS011;251;48.704;9.210;2022-11-15T16:57:55;7.60;;;4.07;;
529;SDS011;251;48.704;9.210;2022-11-15T17:00:23;4.30;;;2.78;;
529;SDS011;251;48.704;9.210;2022-11-15T17:02:51;2.80;;;2.20;;
529;SDS011;251;48.704;9.210;2022-11-15T17:05:19;3.90;;;2.35;;
529;SDS011;251;48.704;9.210;2022-11-15T17:07:47;3.05;;;2.20;;
529;SDS011;251;48.704;9.210;2022-11-15T17:10:18;3.88;;;2.22;;
529;SDS011;251;48.704;9.210;2022-11-15T17:12:46;4.83;;;2.37;;
529;SDS011;251;48.704;9.210;2022-11-15T17:15:14;3.15;;;2.80;;
529;SDS011;251;48.704;9.210;2022-11-15T17:17:41;3.40;;;1.88;;
529;SDS011;251;48.704;9.210;2022-11-15T17:20:11;4.95;;;2.05;;
529;SDS011;251;48.704;9.210;2022-11-15T17:22:41;2.83;;;2.33;;
529;SDS011;251;48.704;9.210;2022-11-15T17:25:08;4.00;;;2.28;;
529;SDS011;251;48.704;9.210;2022-11-15T17:27:35;4.55;;;2.67;;
529;SDS011;251;48.704;9.210;2022-11-15T17:30:04;2.58;;;1.92;;